SWR5612 LSZH-EDSB
Flight info
| Callsign | SWR5612 |
|---|---|
| Flight time | N/A |
| Altitude | 22000 |
| Route | DEGES Z1 ALAGO Z5 LOKTA N851 LEBSO Z714 SUL SUL1L STAY1/0040 VFR |
| Aircraft | A320/M-SDE3FGHIRWY/LB1 |
Departure
| Time | 2026-04-26 18:33 |
|---|---|
| Airport | Zürich Airport (LSZH) |
Arrival
| Time | N/A |
|---|---|
| Airport | Karlsruhe Baden-Baden Airport (EDSB) |
| Time | Latitude | Longitude | Altitude | Speed | Heading |
|---|---|---|---|---|---|
| 2026-04-26 18:15 | 47.45590 | 8.55686 | 1407 ft | 0 kts | 6° |
| 2026-04-26 18:29 | 47.45594 | 8.55687 | 1407 ft | 2 kts | 6° |
| 2026-04-26 18:29 | 47.45611 | 8.55690 | 1414 ft | 3 kts | 8° |
| 2026-04-26 18:30 | 47.45636 | 8.55704 | 1409 ft | 4 kts | 46° |
| 2026-04-26 18:30 | 47.45644 | 8.55754 | 1407 ft | 9 kts | 88° |
| 2026-04-26 18:30 | 47.45637 | 8.55882 | 1409 ft | 16 kts | 96° |
| 2026-04-26 18:30 | 47.45625 | 8.56059 | 1411 ft | 18 kts | 97° |
| 2026-04-26 18:31 | 47.45614 | 8.56198 | 1412 ft | 12 kts | 95° |
| 2026-04-26 18:31 | 47.45672 | 8.56271 | 1415 ft | 14 kts | 5° |
| 2026-04-26 18:31 | 47.45772 | 8.56287 | 1418 ft | 15 kts | 9° |
| 2026-04-26 18:31 | 47.45884 | 8.56303 | 1414 ft | 17 kts | 7° |
| 2026-04-26 18:32 | 47.46010 | 8.56324 | 1412 ft | 19 kts | 6° |
| 2026-04-26 18:32 | 47.46145 | 8.56360 | 1410 ft | 15 kts | 12° |
| 2026-04-26 18:32 | 47.46228 | 8.56311 | 1411 ft | 10 kts | 316° |
| 2026-04-26 18:32 | 47.46237 | 8.56298 | 1408 ft | 5 kts | 316° |
| 2026-04-26 18:33 | 47.46445 | 8.56015 | 1400 ft | 87 kts | 317° |
| 2026-04-26 18:33 | 47.47093 | 8.55141 | 1389 ft | 161 kts | 320° |
| 2026-04-26 18:33 | 47.47974 | 8.54021 | 2101 ft | 167 kts | 320° |
| 2026-04-26 18:33 | 47.48845 | 8.52869 | 2980 ft | 172 kts | 327° |
| 2026-04-26 18:34 | 47.49938 | 8.51930 | 3499 ft | 193 kts | 336° |
| 2026-04-26 18:34 | 47.51190 | 8.50965 | 4022 ft | 217 kts | 336° |
| 2026-04-26 18:34 | 47.52609 | 8.50031 | 4975 ft | 222 kts | 348° |
| 2026-04-26 18:34 | 47.54171 | 8.49879 | 5721 ft | 240 kts | 12° |
| 2026-04-26 18:35 | 47.55711 | 8.51013 | 6407 ft | 260 kts | 45° |
| 2026-04-26 18:35 | 47.56606 | 8.53371 | 7342 ft | 272 kts | 78° |
| 2026-04-26 18:35 | 47.56494 | 8.56205 | 8339 ft | 283 kts | 104° |
| 2026-04-26 18:35 | 47.55915 | 8.59030 | 9382 ft | 290 kts | 109° |
| 2026-04-26 18:36 | 47.55226 | 8.61881 | 10393 ft | 298 kts | 111° |
| 2026-04-26 18:36 | 47.54468 | 8.64871 | 10932 ft | 323 kts | 111° |
| 2026-04-26 18:36 | 47.53656 | 8.68103 | 11369 ft | 347 kts | 110° |
| 2026-04-26 18:36 | 47.52814 | 8.71528 | 12065 ft | 360 kts | 110° |
| 2026-04-26 18:37 | 47.51966 | 8.75055 | 12958 ft | 367 kts | 110° |
| 2026-04-26 18:37 | 47.51117 | 8.78641 | 13853 ft | 373 kts | 109° |
| 2026-04-26 18:37 | 47.50263 | 8.82294 | 14670 ft | 378 kts | 109° |
| 2026-04-26 18:37 | 47.49407 | 8.85953 | 15446 ft | 384 kts | 109° |
| 2026-04-26 18:38 | 47.48525 | 8.89710 | 16230 ft | 389 kts | 109° |
| 2026-04-26 18:38 | 47.47626 | 8.93522 | 16997 ft | 395 kts | 109° |
| 2026-04-26 18:38 | 47.46712 | 8.97386 | 17778 ft | 400 kts | 109° |
| 2026-04-26 18:38 | 47.45781 | 9.01295 | 18545 ft | 406 kts | 109° |
| 2026-04-26 18:39 | 47.44834 | 9.05252 | 19220 ft | 411 kts | 109° |
| 2026-04-26 18:39 | 47.43876 | 9.09254 | 19909 ft | 415 kts | 109° |
| 2026-04-26 18:39 | 47.43044 | 9.13355 | 20604 ft | 420 kts | 101° |
| 2026-04-26 18:39 | 47.42716 | 9.17670 | 21278 ft | 423 kts | 89° |
| 2026-04-26 18:40 | 47.42952 | 9.21958 | 21903 ft | 426 kts | 78° |
| 2026-04-26 18:40 | 47.43734 | 9.26164 | 22142 ft | 425 kts | 66° |
| 2026-04-26 18:40 | 47.45068 | 9.30113 | 22197 ft | 437 kts | 57° |
| 2026-04-26 18:40 | 47.46707 | 9.33933 | 22194 ft | 441 kts | 51° |
| 2026-04-26 18:41 | 47.48710 | 9.37350 | 22193 ft | 440 kts | 41° |
| 2026-04-26 18:41 | 47.51054 | 9.40215 | 22193 ft | 436 kts | 31° |
| 2026-04-26 18:41 | 47.53677 | 9.42454 | 22196 ft | 433 kts | 22° |
| 2026-04-26 18:41 | 47.56486 | 9.44023 | 22197 ft | 429 kts | 13° |
| 2026-04-26 18:42 | 47.59391 | 9.44978 | 22189 ft | 426 kts | 5° |
| 2026-04-26 18:42 | 47.62339 | 9.45308 | 22197 ft | 424 kts | 359° |
| 2026-04-26 18:42 | 47.65255 | 9.45469 | 22188 ft | 424 kts | 359° |
| 2026-04-26 18:42 | 47.68197 | 9.45633 | 22197 ft | 424 kts | 359° |
| 2026-04-26 18:43 | 47.71148 | 9.45798 | 22196 ft | 424 kts | 359° |
| 2026-04-26 18:43 | 47.74093 | 9.45964 | 22197 ft | 424 kts | 359° |
| 2026-04-26 18:43 | 47.77045 | 9.46023 | 22191 ft | 422 kts | 354° |
| 2026-04-26 18:43 | 47.79930 | 9.45427 | 22192 ft | 418 kts | 344° |
| 2026-04-26 18:44 | 47.82691 | 9.44130 | 22193 ft | 415 kts | 335° |
| 2026-04-26 18:44 | 47.85268 | 9.42254 | 22194 ft | 412 kts | 328° |
| 2026-04-26 18:44 | 47.87531 | 9.39681 | 22190 ft | 409 kts | 312° |
| 2026-04-26 18:44 | 47.89320 | 9.36407 | 22193 ft | 407 kts | 306° |
| 2026-04-26 18:45 | 47.91045 | 9.33054 | 22190 ft | 407 kts | 306° |
| 2026-04-26 18:45 | 47.92763 | 9.29695 | 22192 ft | 408 kts | 306° |
| 2026-04-26 18:45 | 47.94478 | 9.26335 | 22192 ft | 408 kts | 306° |
| 2026-04-26 18:45 | 47.96194 | 9.22968 | 22190 ft | 408 kts | 306° |
| 2026-04-26 18:46 | 47.97887 | 9.19648 | 21984 ft | 394 kts | 306° |
| 2026-04-26 18:46 | 47.99513 | 9.16459 | 21723 ft | 379 kts | 306° |
| 2026-04-26 18:46 | 48.01078 | 9.13385 | 21466 ft | 366 kts | 306° |
| 2026-04-26 18:46 | 48.02592 | 9.10408 | 21212 ft | 354 kts | 306° |
| 2026-04-26 18:47 | 48.04055 | 9.07529 | 20960 ft | 343 kts | 306° |
| 2026-04-26 18:47 | 48.05476 | 9.04729 | 20709 ft | 332 kts | 306° |
| 2026-04-26 18:47 | 48.06853 | 9.02015 | 20455 ft | 323 kts | 307° |
| 2026-04-26 18:47 | 48.08192 | 8.99374 | 20205 ft | 315 kts | 307° |
| 2026-04-26 18:48 | 48.09507 | 8.96776 | 19886 ft | 313 kts | 307° |
| 2026-04-26 18:48 | 48.10801 | 8.94215 | 19441 ft | 312 kts | 306° |
| 2026-04-26 18:48 | 48.12110 | 8.91620 | 19022 ft | 311 kts | 307° |
| 2026-04-26 18:48 | 48.13413 | 8.89034 | 18623 ft | 310 kts | 307° |
| 2026-04-26 18:49 | 48.14708 | 8.86457 | 18159 ft | 309 kts | 307° |
| 2026-04-26 18:49 | 48.15997 | 8.83899 | 17735 ft | 307 kts | 307° |
| 2026-04-26 18:49 | 48.17281 | 8.81349 | 17314 ft | 306 kts | 307° |
| 2026-04-26 18:49 | 48.18559 | 8.78810 | 16899 ft | 305 kts | 307° |
| 2026-04-26 18:50 | 48.19831 | 8.76279 | 16498 ft | 303 kts | 307° |
| 2026-04-26 18:50 | 48.21095 | 8.73757 | 16108 ft | 302 kts | 307° |
| 2026-04-26 18:50 | 48.22355 | 8.71239 | 15720 ft | 301 kts | 307° |
| 2026-04-26 18:50 | 48.23607 | 8.68742 | 15346 ft | 299 kts | 307° |
| 2026-04-26 18:51 | 48.24436 | 8.67091 | 15098 ft | 299 kts | 307° |
| 2026-04-26 18:51 | 48.26089 | 8.63788 | 14604 ft | 297 kts | 307° |
| 2026-04-26 18:51 | 48.27322 | 8.61317 | 14251 ft | 296 kts | 306° |
| 2026-04-26 18:51 | 48.28555 | 8.58843 | 13891 ft | 295 kts | 306° |
| 2026-04-26 18:52 | 48.29781 | 8.56382 | 13491 ft | 294 kts | 307° |
| 2026-04-26 18:52 | 48.30589 | 8.54761 | 13225 ft | 293 kts | 307° |
| 2026-04-26 18:52 | 48.31804 | 8.52324 | 12823 ft | 291 kts | 306° |
| 2026-04-26 18:52 | 48.33019 | 8.49885 | 12430 ft | 290 kts | 306° |
| 2026-04-26 18:53 | 48.34223 | 8.47461 | 12034 ft | 289 kts | 307° |
| 2026-04-26 18:53 | 48.35419 | 8.45049 | 11647 ft | 287 kts | 306° |
| 2026-04-26 18:53 | 48.36612 | 8.42642 | 11286 ft | 286 kts | 307° |
| 2026-04-26 18:53 | 48.37798 | 8.40247 | 10941 ft | 285 kts | 307° |
| 2026-04-26 18:54 | 48.38979 | 8.37861 | 10599 ft | 284 kts | 307° |
| 2026-04-26 18:54 | 48.40159 | 8.35480 | 10263 ft | 283 kts | 307° |
| 2026-04-26 18:54 | 48.41332 | 8.33108 | 9909 ft | 281 kts | 307° |
| 2026-04-26 18:54 | 48.42373 | 8.30630 | 9539 ft | 280 kts | 296° |
| 2026-04-26 18:55 | 48.43163 | 8.27997 | 9176 ft | 279 kts | 294° |
| 2026-04-26 18:55 | 48.43940 | 8.25287 | 8808 ft | 278 kts | 294° |
| 2026-04-26 18:55 | 48.44692 | 8.22647 | 8450 ft | 277 kts | 294° |
| 2026-04-26 18:55 | 48.45448 | 8.19982 | 8095 ft | 276 kts | 294° |
| 2026-04-26 18:56 | 48.46200 | 8.17329 | 7695 ft | 274 kts | 294° |
| 2026-04-26 18:56 | 48.46942 | 8.14697 | 7256 ft | 273 kts | 294° |
| 2026-04-26 18:56 | 48.47682 | 8.12067 | 6810 ft | 272 kts | 294° |
| 2026-04-26 18:56 | 48.48420 | 8.09446 | 6347 ft | 271 kts | 294° |
| 2026-04-26 18:57 | 48.49154 | 8.06836 | 5868 ft | 270 kts | 294° |
| 2026-04-26 18:57 | 48.49641 | 8.05110 | 5546 ft | 270 kts | 294° |
| 2026-04-26 18:57 | 48.50621 | 8.01628 | 4935 ft | 268 kts | 294° |
| 2026-04-26 18:57 | 48.51326 | 7.99116 | 4810 ft | 253 kts | 293° |
| 2026-04-26 18:58 | 48.51992 | 7.96735 | 4658 ft | 240 kts | 294° |
| 2026-04-26 18:58 | 48.52619 | 7.94471 | 4541 ft | 228 kts | 294° |
| 2026-04-26 18:58 | 48.53471 | 7.92551 | 4367 ft | 217 kts | 323° |
| 2026-04-26 18:58 | 48.54799 | 7.91637 | 4110 ft | 209 kts | 349° |
| 2026-04-26 18:59 | 48.56210 | 7.91213 | 4000 ft | 203 kts | 353° |
| 2026-04-26 18:59 | 48.57581 | 7.90856 | 4002 ft | 199 kts | 353° |
| 2026-04-26 18:59 | 48.58949 | 7.90781 | 4002 ft | 194 kts | 13° |
| 2026-04-26 18:59 | 48.60150 | 7.91461 | 3998 ft | 177 kts | 33° |
| 2026-04-26 19:00 | 48.61184 | 7.92425 | 4020 ft | 174 kts | 33° |
| 2026-04-26 19:00 | 48.62213 | 7.93380 | 3822 ft | 172 kts | 33° |
| 2026-04-26 19:00 | 48.63229 | 7.94324 | 3594 ft | 171 kts | 33° |
| 2026-04-26 19:00 | 48.64239 | 7.95264 | 3369 ft | 169 kts | 33° |
| 2026-04-26 19:01 | 48.65237 | 7.96192 | 3150 ft | 168 kts | 34° |
| 2026-04-26 19:01 | 48.66228 | 7.97115 | 2927 ft | 166 kts | 34° |
| 2026-04-26 19:01 | 48.67208 | 7.98028 | 2702 ft | 160 kts | 34° |
| 2026-04-26 19:01 | 48.68098 | 7.98855 | 2456 ft | 141 kts | 34° |
| 2026-04-26 19:02 | 48.68890 | 7.99597 | 2234 ft | 128 kts | 35° |
| 2026-04-26 19:02 | 48.69626 | 8.00282 | 2063 ft | 121 kts | 34° |